Relevés horaires Melle (Belgique)


Relevés horaires à Melle - Mardi 06 Oct. 2015
Heure UTC1 Température [°C] Vent [km/h] Hum. [%] Pres.4 [hPa] Visi. [Km] Nébu. [octa] Préc.5 [mm] Cond.
2m. Res. Ros. Dir.2 Vit. Moy. Raf.3
23:00 15.9 15.9 14.1 SSO 7.4 7.4 14.8 89 1003.4(1.1/3h) -- -- -- --
22:00 15.2 15.2 13.6 S 5.6 5.6 9.3 90 1003(1.3/3h) -- -- -- --
21:00 15.4 15.4 13.6 S 5.6 11.1 16.7 89 1002.8(1.4/3h) -- -- -- --
20:00 16.2 16.1 13.3 SSO 9.3 11.1 16.7 83 1002.3(1.4/3h) -- -- -- --
19:00 17.4 17.4 13.8 SSE 5.6 5.6 9.3 79 1001.7(1.6/3h) -- -- -- --
18:00 17.4 17.4 13.1 SSE 3.7 11.1 18.5 76 1001.4(1.1/3h) -- -- 0.9/12h
--
17:00 18.5 18.5 13.1 SSO 9.3 11.1 18.5 71 1000.9(0.2/3h) -- -- -- --
16:00 20.2 20.2 15.5 S 7.4 9.3 13.0 74 1000.1(-0.6/3h) -- -- -- --
15:00 19.8 19.8 16.2 S 9.3 11.1 18.5 80 1000.3(-0.6/3h) -- -- -- --
14:00 18.6 18.6 15.7 S 9.3 11.1 18.5 83 1000.7(-1.1/3h) -- -- -- --
13:00 18.4 18.4 16.1 S 7.4 9.3 16.7 86 1000.7(-2.1/3h) -- -- -- --
12:00 17.2 17.2 16.0 ESE 7.4 7.4 11.1 93 1000.9(-1.9/3h) -- -- 0.9/6h
--
11:00 16.7 16.7 15.6 ESE 5.6 5.6 7.4 93 1001.8(-0.7/3h) -- -- -- --
10:00 16.3 16.3 15.2 S 5.6 7.4 11.1 93 1002.8(0.1/3h) -- -- -- --
09:00 16.0 16.0 15.1 S 5.6 5.6 9.3 94 1002.8(0.0/3h) -- -- -- --
08:00 15.8 15.8 15.1 SSE 3.7 5.6 7.4 96 1002.5(-0.7/3h) -- -- -- --
07:00 15.0 15.0 14.3 S 5.6 5.6 7.4 96 1002.7(-0.7/3h) -- -- -- --
06:00 14.7 14.7 14.0 S 5.6 5.6 9.3 96 1002.9(-0.8/3h) -- -- 11/12h
--
05:00 14.4 14.4 13.7 SSE 3.7 3.7 5.6 96 1003.3(-0.4/3h) -- -- -- --
04:00 14.1 14.1 13.4 S 3.7 3.7 3.7 96 1003.5(-0.4/3h) -- -- -- --
03:00 14.1 14.1 13.4 SSE 1.9 3.7 3.7 96 1003.7(-0.5/3h) -- -- -- --
02:00 14.1 14.1 13.4 NNO 0.0 1.9 3.7 96 1003.7(-0.8/3h) -- -- -- --
01:00 14.3 14.3 13.5 N 1.9 3.7 3.7 95 1003.9(-1.2/3h) -- -- -- --
00:00 14.4 14.4 13.6 NNE 3.7 3.7 5.6 95 1004.2(-1.6/3h) -- -- 10/6h
--

1 Coordinated Universal Time. Actuellement il est 16:00 locale et 14:00 UTC.

2 Le vent souffle depuis la direction indiquée vers la direction oposée.

3 Les rafales max. sont disponible 40 min après l'heure du relevé.

4 Pour les stations d'altitude (plus de 600m) le géopotentiel du niveau le plus proche de la pression obligatoire est indiqué.

5 Les stations disposant d'un diffuseur peuvent indiquer "trace". Cela signifie que des précipitations ont touchés le sol mais que la quantité est inférieure à 0.1 mm.

Récapitulatif de la journée
Température [°C] Vent [km/h] Ensoleillement4 [h] Precipitations totale5 [mm] Pression [Hpa]
Min1 Max.2 Moy.3 Max. Min Max.
14.0 20.5 7 18.5 0 h 0 min 0 1000.1 1004.2

1 Température minimale relevée entre 18:00 UTC la veille et 18:00 UTC le jour donné.

2 Température maximale relevée entre 06:00 UTC le jour donné et 06:00 UTC le lendemain.

3 Vent moyen de la journée basé sur les relevés horaires.

4 Ensoleillement en heures relevé entre 06:00 UTC la veille et 06:00 UTC le jour donné.

5 Précipitations totales tombées entre 06:00 UTC la jour donné et 06:00 UTC le lendemain.

Graphiques horaires